createdAt,value
2019-02-04T00:01:17.261Z,11.13
2019-02-04T00:03:43.737Z,8.07
2019-02-04T00:06:10.590Z,8.00
2019-02-04T00:08:37.073Z,7.73
2019-02-04T00:11:04.646Z,10.77
2019-02-04T00:13:31.141Z,7.57
2019-02-04T00:15:57.510Z,7.80
2019-02-04T00:18:24.080Z,9.57
2019-02-04T00:20:50.553Z,9.93
2019-02-04T00:23:17.335Z,8.30
2019-02-04T00:25:43.798Z,7.93
2019-02-04T00:28:10.276Z,13.07
2019-02-04T00:30:36.723Z,12.17
2019-02-04T00:33:03.410Z,8.37
2019-02-04T00:35:29.871Z,7.50
2019-02-04T00:37:56.361Z,10.00
2019-02-04T00:40:23.666Z,8.27
2019-02-04T00:42:50.157Z,10.20
2019-02-04T00:45:16.613Z,8.30
2019-02-04T00:47:43.104Z,8.97
2019-02-04T00:50:14.392Z,8.20
2019-02-04T00:52:41.067Z,10.13
2019-02-04T00:55:08.533Z,6.23
2019-02-04T00:57:35.318Z,9.23
2019-02-04T01:00:03.884Z,9.73
2019-02-04T01:02:30.342Z,8.90
2019-02-04T01:04:56.833Z,8.57
2019-02-04T01:07:23.289Z,11.53
2019-02-04T01:09:49.877Z,6.07
2019-02-04T01:12:16.427Z,8.63
2019-02-04T01:14:42.812Z,7.53
2019-02-04T01:17:09.566Z,8.37
2019-02-04T01:19:36.043Z,7.00
2019-02-04T01:22:02.600Z,7.87
2019-02-04T01:24:29.195Z,9.37
2019-02-04T01:26:55.545Z,8.13
2019-02-04T01:29:22.025Z,8.17
2019-02-04T01:31:48.607Z,11.27
2019-02-04T01:34:15.462Z,7.23
2019-02-04T01:36:42.041Z,7.10
2019-02-04T01:39:08.611Z,10.63
2019-02-04T01:41:35.209Z,7.90
2019-02-04T01:44:01.666Z,8.60
2019-02-04T01:46:28.048Z,6.67
2019-02-04T01:48:54.413Z,8.57
2019-02-04T01:51:20.896Z,7.97
2019-02-04T01:53:47.642Z,8.10
2019-02-04T01:56:14.020Z,7.83
2019-02-04T01:58:40.476Z,8.37
2019-02-04T02:01:06.940Z,11.37
2019-02-04T02:03:33.495Z,7.47
2019-02-04T02:06:00.083Z,6.13
2019-02-04T02:08:26.640Z,9.10
2019-02-04T02:10:53.526Z,8.27
2019-02-04T02:13:19.980Z,7.93
2019-02-04T02:15:46.368Z,10.83
2019-02-04T02:18:12.840Z,8.20
2019-02-04T02:20:39.435Z,9.83
2019-02-04T02:23:05.995Z,9.53
2019-02-04T02:25:32.868Z,8.90
2019-02-04T02:27:59.215Z,9.87
2019-02-04T02:30:27.083Z,8.17
2019-02-04T02:32:53.446Z,11.73
2019-02-04T02:35:19.798Z,7.43
2019-02-04T02:37:46.287Z,8.53
2019-02-04T02:40:14.571Z,8.27
2019-02-04T02:42:41.059Z,11.60
2019-02-04T02:45:07.511Z,8.10
2019-02-04T02:47:38.355Z,8.80
2019-02-04T02:50:04.523Z,9.90
2019-02-04T02:52:30.999Z,7.70
2019-02-04T02:54:57.544Z,10.37
2019-02-04T02:57:24.044Z,9.90
2019-02-04T02:59:50.517Z,10.20
2019-02-04T03:02:17.018Z,13.93
2019-02-04T03:04:43.882Z,9.70
2019-02-04T03:07:10.339Z,11.57
2019-02-04T03:09:36.688Z,12.77
2019-02-04T03:12:03.271Z,11.63
2019-02-04T03:14:29.725Z,14.87
2019-02-04T03:16:56.209Z,11.00
2019-02-04T03:19:22.780Z,10.97
2019-02-04T03:21:49.379Z,10.80
2019-02-04T03:24:16.348Z,10.67
2019-02-04T03:26:42.803Z,10.93
2019-02-04T03:29:09.268Z,12.30
2019-02-04T03:31:39.102Z,8.37
2019-02-04T03:34:04.011Z,8.73
2019-02-04T03:36:30.485Z,14.47
2019-02-04T03:38:56.981Z,8.13
2019-02-04T03:41:24.012Z,10.73
2019-02-04T03:43:50.597Z,11.43
2019-02-04T03:46:17.048Z,12.00
2019-02-04T03:48:43.522Z,12.93
2019-02-04T03:51:09.988Z,11.00
2019-02-04T03:53:36.571Z,12.13
2019-02-04T03:56:03.143Z,12.60
2019-02-04T03:58:30.024Z,11.83
2019-02-04T04:00:56.579Z,11.47
2019-02-04T04:03:23.152Z,16.93
2019-02-04T04:05:49.622Z,23.03
2019-02-04T04:08:16.063Z,23.90
2019-02-04T04:10:42.692Z,14.60
2019-02-04T04:13:09.237Z,14.23
2019-02-04T04:15:35.816Z,11.53
2019-02-04T04:18:02.276Z,12.83
2019-02-04T04:20:28.697Z,14.73
2019-02-04T04:22:55.226Z,15.47
2019-02-04T04:25:21.704Z,13.50
2019-02-04T04:27:48.151Z,14.57
2019-02-04T04:30:16.539Z,16.07
2019-02-04T04:32:43.103Z,13.23
2019-02-04T04:35:10.200Z,14.30
2019-02-04T04:37:36.587Z,15.23
2019-02-04T04:40:04.219Z,20.13
2019-02-04T04:42:30.681Z,34.90
2019-02-04T04:44:57.178Z,41.50
2019-02-04T04:47:23.543Z,29.33
2019-02-04T04:49:50.022Z,29.40
2019-02-04T04:52:16.480Z,27.57
2019-02-04T04:54:42.981Z,29.43
2019-02-04T04:57:09.427Z,33.40
2019-02-04T04:59:35.916Z,26.27
2019-02-04T05:02:02.363Z,18.87
2019-02-04T05:04:28.744Z,26.03
2019-02-04T05:06:55.230Z,24.17
2019-02-04T05:09:21.729Z,23.73
2019-02-04T05:11:48.562Z,17.37
2019-02-04T05:14:14.923Z,18.63
2019-02-04T05:16:41.508Z,17.53
2019-02-04T05:19:07.967Z,14.63
2019-02-04T05:21:34.539Z,12.67
2019-02-04T05:24:00.982Z,13.73
2019-02-04T05:26:27.463Z,15.27
2019-02-04T05:28:54.024Z,16.70
2019-02-04T05:31:20.516Z,16.13
2019-02-04T05:33:46.964Z,16.80
2019-02-04T05:36:13.331Z,19.53
2019-02-04T05:38:39.892Z,18.17
2019-02-04T05:41:06.401Z,19.53
2019-02-04T05:43:32.767Z,21.37
2019-02-04T05:45:59.331Z,17.37
2019-02-04T05:48:25.900Z,15.80
2019-02-04T05:50:52.487Z,22.30
2019-02-04T05:53:18.939Z,14.47
2019-02-04T05:55:45.425Z,14.77
2019-02-04T05:58:11.890Z,13.27
2019-02-04T06:00:40.141Z,21.17
2019-02-04T06:03:06.535Z,16.23
2019-02-04T06:05:32.983Z,24.57
2019-02-04T06:07:59.757Z,21.50
2019-02-04T06:10:26.204Z,18.30
2019-02-04T06:12:52.698Z,18.13
2019-02-04T06:15:19.145Z,13.93
2019-02-04T06:17:45.643Z,15.43
2019-02-04T06:20:16.563Z,17.57
2019-02-04T06:22:43.031Z,21.40
2019-02-04T06:25:09.784Z,41.90
2019-02-04T06:27:36.347Z,31.77
2019-02-04T06:30:04.307Z,26.20
2019-02-04T06:32:30.788Z,19.67
2019-02-04T06:34:57.239Z,25.27
2019-02-04T06:37:23.640Z,25.80
2019-02-04T06:39:50.144Z,25.50
2019-02-04T06:42:17.046Z,23.40
2019-02-04T06:44:43.511Z,21.07
2019-02-04T06:47:10.021Z,26.53
2019-02-04T06:49:36.497Z,20.77
2019-02-04T06:52:03.178Z,21.63
2019-02-04T06:54:29.651Z,21.40
2019-02-04T06:56:56.219Z,21.43
2019-02-04T06:59:22.814Z,18.67
2019-02-04T07:01:49.588Z,19.70
2019-02-04T07:04:15.969Z,18.23
2019-02-04T07:06:42.543Z,16.50
2019-02-04T07:09:09.129Z,14.73
2019-02-04T07:11:35.583Z,17.63
2019-02-04T07:14:03.236Z,17.00
2019-02-04T07:16:29.694Z,15.90
2019-02-04T07:18:56.217Z,14.70
2019-02-04T07:21:22.955Z,16.40
2019-02-04T07:23:49.562Z,16.23
2019-02-04T07:26:16.019Z,15.23
2019-02-04T07:28:42.383Z,18.40
2019-02-04T07:31:08.943Z,17.87
2019-02-04T07:33:35.442Z,18.93
2019-02-04T07:36:03.460Z,20.37
2019-02-04T07:38:30.172Z,19.83
2019-02-04T07:40:56.928Z,14.23
2019-02-04T07:43:23.524Z,19.70
2019-02-04T07:45:49.907Z,16.13
2019-02-04T07:48:16.272Z,21.73
2019-02-04T07:50:42.753Z,18.27
2019-02-04T07:53:09.307Z,17.17
2019-02-04T07:55:35.895Z,16.47
2019-02-04T07:58:02.369Z,17.93
2019-02-04T08:00:32.003Z,20.60
2019-02-04T08:02:58.468Z,20.97
2019-02-04T08:05:24.931Z,17.93
2019-02-04T08:07:51.383Z,19.33
2019-02-04T08:10:18.003Z,19.70
2019-02-04T08:12:44.673Z,20.20
2019-02-04T08:15:13.066Z,16.30
2019-02-04T08:17:39.636Z,21.20
2019-02-04T08:20:06.639Z,20.67
2019-02-04T08:22:33.219Z,18.30
2019-02-04T08:24:59.685Z,14.20
2019-02-04T08:27:26.257Z,18.30
2019-02-04T08:29:52.710Z,22.93
2019-02-04T08:32:19.181Z,21.23
2019-02-04T08:34:46.035Z,19.27
2019-02-04T08:37:12.491Z,18.40
2019-02-04T08:39:39.029Z,15.73
2019-02-04T08:42:05.663Z,16.00
2019-02-04T08:44:32.152Z,18.77
2019-02-04T08:46:58.706Z,19.07
2019-02-04T08:49:25.175Z,15.87
2019-02-04T08:51:51.636Z,20.70
2019-02-04T08:54:18.115Z,20.93
2019-02-04T08:56:44.978Z,18.27
2019-02-04T08:59:11.460Z,20.03
2019-02-04T09:01:37.916Z,20.73
2019-02-04T09:04:04.406Z,18.60
2019-02-04T09:06:30.956Z,17.87
2019-02-04T09:08:57.447Z,17.07
2019-02-04T09:11:23.912Z,17.93
2019-02-04T09:13:50.506Z,16.93
2019-02-04T09:16:17.295Z,16.80
2019-02-04T09:18:45.089Z,14.33
2019-02-04T09:21:11.847Z,15.40
2019-02-04T09:23:38.242Z,14.93
2019-02-04T09:26:04.720Z,14.40
2019-02-04T09:28:31.184Z,15.83
2019-02-04T09:30:57.632Z,13.40
2019-02-04T09:33:24.117Z,17.53
2019-02-04T09:35:50.992Z,14.70
2019-02-04T09:38:17.454Z,12.50
2019-02-04T09:40:44.447Z,12.03
2019-02-04T09:43:11.561Z,12.30
2019-02-04T09:45:38.545Z,12.97
2019-02-04T09:48:06.907Z,12.07
2019-02-04T09:50:34.991Z,12.20
2019-02-04T09:53:01.449Z,13.80
2019-02-04T09:55:29.523Z,12.67
2019-02-04T09:57:56.007Z,10.67
2019-02-04T10:00:24.192Z,14.23
2019-02-04T10:02:50.648Z,12.70
2019-02-04T10:05:17.621Z,13.47
2019-02-04T10:07:44.079Z,12.70
2019-02-04T10:10:12.357Z,10.77
2019-02-04T10:12:39.322Z,13.90
2019-02-04T10:15:07.727Z,13.80
2019-02-04T10:17:34.325Z,13.80
2019-02-04T10:20:00.974Z,11.83
2019-02-04T10:22:27.427Z,10.93
2019-02-04T10:24:53.928Z,12.17
2019-02-04T10:27:20.397Z,10.77
2019-02-04T10:29:47.295Z,11.53
2019-02-04T10:32:13.797Z,11.40
2019-02-04T10:34:40.365Z,11.43
2019-02-04T10:37:06.931Z,11.87
2019-02-04T10:39:33.355Z,10.80
2019-02-04T10:42:00.055Z,13.43
2019-02-04T10:44:26.580Z,12.43
2019-02-04T10:46:53.081Z,12.23
2019-02-04T10:49:19.626Z,11.00
2019-02-04T10:51:46.216Z,11.80
2019-02-04T10:54:12.696Z,13.03
2019-02-04T10:56:39.282Z,10.40
2019-02-04T10:59:05.841Z,11.13
2019-02-04T11:01:32.345Z,13.15
2019-02-04T11:03:58.859Z,10.48
2019-02-04T11:06:25.480Z,10.75
2019-02-04T11:08:51.934Z,9.55
2019-02-04T11:11:18.464Z,7.75
2019-02-04T11:13:45.200Z,6.05
2019-02-04T11:16:11.742Z,7.20
2019-02-04T11:18:38.334Z,10.35
2019-02-04T11:21:04.897Z,7.35
2019-02-04T11:23:31.381Z,7.10
2019-02-04T11:25:58.239Z,6.00
2019-02-04T11:28:24.800Z,6.30
2019-02-04T11:30:53.363Z,6.58
2019-02-04T11:33:20.265Z,6.95
2019-02-04T11:35:46.825Z,6.67
2019-02-04T11:38:13.460Z,6.12
2019-02-04T11:40:40.022Z,5.30
2019-02-04T11:43:07.203Z,5.47
2019-02-04T11:45:33.871Z,7.85
2019-02-04T11:48:00.850Z,6.55
2019-02-04T11:50:27.522Z,4.83
2019-02-04T11:52:54.059Z,6.80
2019-02-04T11:55:20.615Z,5.85
2019-02-04T11:57:47.213Z,4.05
2019-02-04T12:00:15.562Z,6.53
2019-02-04T12:02:42.561Z,7.15
2019-02-04T12:05:10.937Z,5.25
2019-02-04T12:07:37.474Z,5.87
2019-02-04T12:10:05.849Z,6.40
2019-02-04T12:12:32.457Z,4.30
2019-02-04T12:14:58.913Z,5.22
2019-02-04T12:17:25.446Z,6.25
2019-02-04T12:19:52.292Z,4.50
2019-02-04T12:22:18.778Z,4.97
2019-02-04T12:24:45.154Z,6.08
2019-02-04T12:27:11.677Z,5.75
2019-02-04T12:29:38.141Z,3.37
2019-02-04T12:32:04.611Z,4.85
2019-02-04T12:34:31.075Z,4.00
2019-02-04T12:36:57.583Z,4.47
2019-02-04T12:39:24.471Z,4.05
2019-02-04T12:41:51.025Z,4.97
2019-02-04T12:44:17.491Z,6.03
2019-02-04T12:46:43.951Z,3.98
2019-02-04T12:49:10.644Z,4.58
2019-02-04T12:51:36.994Z,5.08
2019-02-04T12:54:03.456Z,4.85
2019-02-04T12:56:29.904Z,4.80
2019-02-04T12:58:56.478Z,4.45
2019-02-04T13:01:23.065Z,5.45
2019-02-04T13:03:49.536Z,3.58
2019-02-04T13:06:16.109Z,7.08
2019-02-04T13:08:42.686Z,4.42
2019-02-04T13:11:09.076Z,3.35
2019-02-04T13:13:35.873Z,4.53
2019-02-04T13:16:02.923Z,2.98
2019-02-04T13:18:29.437Z,4.33
2019-02-04T13:20:55.801Z,4.10
2019-02-04T13:23:22.305Z,4.45
2019-02-04T13:25:48.651Z,5.28
2019-02-04T13:28:15.211Z,2.62
2019-02-04T13:30:41.736Z,2.10
2019-02-04T13:33:08.319Z,3.58
2019-02-04T13:35:35.084Z,4.83
2019-02-04T13:38:01.649Z,2.87
2019-02-04T13:40:28.541Z,3.58
2019-02-04T13:42:55.115Z,5.33
2019-02-04T13:45:21.997Z,7.12
2019-02-04T13:47:48.961Z,3.55
2019-02-04T13:50:16.546Z,4.92
2019-02-04T13:52:43.490Z,3.50
2019-02-04T13:55:11.881Z,2.60
2019-02-04T13:57:38.438Z,2.95
2019-02-04T14:00:06.821Z,3.27
2019-02-04T14:02:33.294Z,2.50
2019-02-04T14:04:59.687Z,2.72
2019-02-04T14:07:26.161Z,3.15
2019-02-04T14:09:53.143Z,3.25
2019-02-04T14:12:19.715Z,2.77
2019-02-04T14:14:46.314Z,3.22
2019-02-04T14:17:12.901Z,3.20
2019-02-04T14:19:39.474Z,3.62
2019-02-04T14:22:09.273Z,4.08
2019-02-04T14:24:34.421Z,3.10
2019-02-04T14:27:01.292Z,5.12
2019-02-04T14:29:27.778Z,3.37
2019-02-04T14:31:54.389Z,2.50
2019-02-04T14:34:20.851Z,3.30
2019-02-04T14:36:47.480Z,4.10
2019-02-04T14:39:13.964Z,3.45
2019-02-04T14:41:40.457Z,3.22
2019-02-04T14:44:07.136Z,3.65
2019-02-04T14:46:35.651Z,3.98
2019-02-04T14:49:02.020Z,3.98
2019-02-04T14:51:30.400Z,4.97
2019-02-04T14:53:57.867Z,4.80
2019-02-04T14:56:26.218Z,5.78
2019-02-04T14:58:54.733Z,4.65
2019-02-04T15:01:22.629Z,4.15
2019-02-04T15:03:51.036Z,4.30
2019-02-04T15:06:19.403Z,5.50
2019-02-04T15:08:47.692Z,3.13
2019-02-04T15:11:16.083Z,4.07
2019-02-04T15:13:44.355Z,3.93
2019-02-04T15:16:13.049Z,6.90
2019-02-04T15:18:41.451Z,9.30
2019-02-04T15:21:09.833Z,9.33
2019-02-04T15:23:38.183Z,7.83
2019-02-04T15:26:06.538Z,8.93
2019-02-04T15:28:34.915Z,9.27
2019-02-04T15:31:01.584Z,6.77
2019-02-04T15:33:28.173Z,6.93
2019-02-04T15:35:56.540Z,10.27
2019-02-04T15:38:24.923Z,7.43
2019-02-04T15:40:51.493Z,7.93
2019-02-04T15:43:25.793Z,7.90
2019-02-04T15:45:52.460Z,7.90
2019-02-04T15:48:19.943Z,9.60
2019-02-04T15:50:48.313Z,9.70
2019-02-04T15:53:14.805Z,10.80
2019-02-04T15:55:41.277Z,9.33
2019-02-04T15:58:07.667Z,11.17
2019-02-04T16:00:34.113Z,10.60
2019-02-04T16:03:01.023Z,8.90
2019-02-04T16:05:27.408Z,13.07
2019-02-04T16:07:53.776Z,11.47
2019-02-04T16:10:20.228Z,9.77
2019-02-04T16:12:47.886Z,13.63
2019-02-04T16:15:14.887Z,12.10
2019-02-04T16:17:41.408Z,10.30
2019-02-04T16:20:09.688Z,10.33
2019-02-04T16:22:36.439Z,11.67
2019-02-04T16:25:04.329Z,9.07
2019-02-04T16:27:30.790Z,13.53
2019-02-04T16:29:57.423Z,12.37
2019-02-04T16:32:23.871Z,10.67
2019-02-04T16:34:50.343Z,12.20
2019-02-04T16:37:16.897Z,13.90
2019-02-04T16:39:43.888Z,10.93
2019-02-04T16:42:10.340Z,6.03
2019-02-04T16:44:37.035Z,8.90
2019-02-04T16:47:03.711Z,7.13
2019-02-04T16:49:30.427Z,9.37
2019-02-04T16:51:56.833Z,8.30
2019-02-04T16:54:23.458Z,10.67
2019-02-04T16:56:49.807Z,7.80
2019-02-04T16:59:16.705Z,9.03
2019-02-04T17:01:43.268Z,8.87
2019-02-04T17:04:09.870Z,10.73
2019-02-04T17:06:36.564Z,11.60
2019-02-04T17:09:04.665Z,10.17
2019-02-04T17:11:31.281Z,8.83
2019-02-04T17:13:57.902Z,8.63
2019-02-04T17:16:24.575Z,10.87
2019-02-04T17:18:52.585Z,10.60
2019-02-04T17:21:19.319Z,13.03
2019-02-04T17:23:45.882Z,10.80
2019-02-04T17:26:12.263Z,13.00
2019-02-04T17:28:38.904Z,13.00
2019-02-04T17:31:05.356Z,10.53
2019-02-04T17:33:31.911Z,10.53
2019-02-04T17:35:58.492Z,14.33
2019-02-04T17:38:25.887Z,11.50
2019-02-04T17:40:52.418Z,9.80
2019-02-04T17:43:18.865Z,11.27
2019-02-04T17:45:45.346Z,7.77
2019-02-04T17:48:11.891Z,9.23
2019-02-04T17:50:38.303Z,10.53
2019-02-04T17:53:04.850Z,7.77
2019-02-04T17:55:31.773Z,7.37
2019-02-04T17:57:58.408Z,8.00
2019-02-04T18:00:29.913Z,7.00
2019-02-04T18:02:56.449Z,7.53
2019-02-04T18:05:23.044Z,7.77
2019-02-04T18:07:49.674Z,7.07
2019-02-04T18:10:16.942Z,5.80
2019-02-04T18:12:43.783Z,7.33
2019-02-04T18:15:12.406Z,6.47
2019-02-04T18:17:39.013Z,9.53
2019-02-04T18:20:06.692Z,6.27
2019-02-04T18:22:33.268Z,6.17
2019-02-04T18:24:59.847Z,8.23
2019-02-04T18:27:26.491Z,7.50
2019-02-04T18:29:53.272Z,7.73
2019-02-04T18:32:19.767Z,7.70
2019-02-04T18:34:46.317Z,6.60
2019-02-04T18:37:13.016Z,9.40
2019-02-04T18:39:39.565Z,6.07
2019-02-04T18:42:06.221Z,9.90
2019-02-04T18:44:32.916Z,8.77
2019-02-04T18:46:59.538Z,7.23
2019-02-04T18:49:26.208Z,6.73
2019-02-04T18:51:52.739Z,8.47
2019-02-04T18:54:19.848Z,9.57
2019-02-04T18:56:46.355Z,8.30
2019-02-04T18:59:13.093Z,7.23
2019-02-04T19:01:40.050Z,10.83
2019-02-04T19:04:08.337Z,10.73
2019-02-04T19:06:34.901Z,11.90
2019-02-04T19:09:01.371Z,10.70
2019-02-04T19:11:27.820Z,8.47
2019-02-04T19:13:54.450Z,13.17
2019-02-04T19:16:21.129Z,8.97
2019-02-04T19:18:47.656Z,10.63
2019-02-04T19:21:14.250Z,8.97
2019-02-04T19:23:41.148Z,9.07
2019-02-04T19:26:08.055Z,9.80
2019-02-04T19:28:34.595Z,13.13
2019-02-04T19:31:03.095Z,11.77
2019-02-04T19:33:29.732Z,12.13
2019-02-04T19:35:56.280Z,13.83
2019-02-04T19:38:22.954Z,13.97
2019-02-04T19:40:49.627Z,11.10
2019-02-04T19:43:16.441Z,12.93
2019-02-04T19:45:43.044Z,10.63
2019-02-04T19:48:11.458Z,16.23
2019-02-04T19:50:37.913Z,23.80
2019-02-04T19:53:04.756Z,13.17
2019-02-04T19:55:31.140Z,12.37
2019-02-04T19:57:57.572Z,13.43
2019-02-04T20:00:24.453Z,12.67
2019-02-04T20:02:51.594Z,12.40
2019-02-04T20:05:19.197Z,13.83
2019-02-04T20:07:46.045Z,14.03
2019-02-04T20:10:14.061Z,17.77
2019-02-04T20:12:40.719Z,19.00
2019-02-04T20:15:15.067Z,15.63
2019-02-04T20:17:42.077Z,13.17
2019-02-04T20:20:09.153Z,18.63
2019-02-04T20:22:35.746Z,16.53
2019-02-04T20:25:03.394Z,14.93
2019-02-04T20:27:30.075Z,19.97
2019-02-04T20:29:56.516Z,16.67
2019-02-04T20:32:23.033Z,14.63
2019-02-04T20:34:49.709Z,18.27
2019-02-04T20:37:16.576Z,16.37
2019-02-04T20:39:43.247Z,16.37
2019-02-04T20:42:09.832Z,16.83
2019-02-04T20:44:36.439Z,14.90
2019-02-04T20:47:02.901Z,16.20
2019-02-04T20:49:29.303Z,18.67
2019-02-04T20:51:55.801Z,17.40
2019-02-04T20:54:23.408Z,20.23
2019-02-04T20:56:50.319Z,22.27
2019-02-04T20:59:16.919Z,21.63
2019-02-04T21:01:43.383Z,17.00
2019-02-04T21:04:09.977Z,21.30
2019-02-04T21:06:36.535Z,17.27
2019-02-04T21:09:04.797Z,23.63
2019-02-04T21:11:31.277Z,26.00
2019-02-04T21:13:57.740Z,27.83
2019-02-04T21:16:24.224Z,24.13
2019-02-04T21:18:51.736Z,22.23
2019-02-04T21:21:18.218Z,15.07
2019-02-04T21:23:44.678Z,20.83
2019-02-04T21:26:11.272Z,16.33
2019-02-04T21:28:37.732Z,18.77
2019-02-04T21:31:04.215Z,18.87
2019-02-04T21:33:30.996Z,18.60
2019-02-04T21:35:57.583Z,17.97
2019-02-04T21:38:25.614Z,20.83
2019-02-04T21:40:52.224Z,21.27
2019-02-04T21:43:18.792Z,20.80
2019-02-04T21:45:45.316Z,24.00
2019-02-04T21:48:11.763Z,24.90
2019-02-04T21:50:38.580Z,28.33
2019-02-04T21:53:05.428Z,35.97
2019-02-04T21:55:32.000Z,29.50
2019-02-04T21:57:58.424Z,38.43
2019-02-04T22:00:26.856Z,24.87
2019-02-04T22:02:53.543Z,29.90
2019-02-04T22:05:21.151Z,26.20
2019-02-04T22:07:47.979Z,28.20
2019-02-04T22:10:16.355Z,27.63
2019-02-04T22:12:42.912Z,31.93
2019-02-04T22:15:09.487Z,25.97
2019-02-04T22:17:35.996Z,28.57
2019-02-04T22:20:03.952Z,29.63
2019-02-04T22:22:30.523Z,27.57
2019-02-04T22:24:56.991Z,28.77
2019-02-04T22:27:23.952Z,33.60
2019-02-04T22:29:50.521Z,26.13
2019-02-04T22:32:17.086Z,26.33
2019-02-04T22:34:45.685Z,38.70
2019-02-04T22:37:12.271Z,40.73
2019-02-04T22:39:38.653Z,51.43
2019-02-04T22:42:05.135Z,47.20
2019-02-04T22:44:31.616Z,39.73
2019-02-04T22:46:58.067Z,39.97
2019-02-04T22:49:24.458Z,34.40
2019-02-04T22:51:51.219Z,27.00
2019-02-04T22:54:17.807Z,28.87
2019-02-04T22:56:44.256Z,30.87
2019-02-04T22:59:10.741Z,32.60
2019-02-04T23:01:39.091Z,32.33
2019-02-04T23:04:05.809Z,28.20
2019-02-04T23:06:32.241Z,29.23
2019-02-04T23:08:59.224Z,28.80
2019-02-04T23:11:25.791Z,30.13
2019-02-04T23:13:52.461Z,31.37
2019-02-04T23:16:18.912Z,28.90
2019-02-04T23:18:45.326Z,29.23
2019-02-04T23:21:11.813Z,32.10
2019-02-04T23:23:38.293Z,31.40
2019-02-04T23:26:04.749Z,30.90
2019-02-04T23:28:31.122Z,32.03
2019-02-04T23:30:57.705Z,31.27
2019-02-04T23:33:33.859Z,30.50
2019-02-04T23:35:52.693Z,29.03
2019-02-04T23:38:19.514Z,30.57
2019-02-04T23:40:46.020Z,27.07
2019-02-04T23:43:12.525Z,38.87
2019-02-04T23:45:39.310Z,34.93
2019-02-04T23:48:06.060Z,38.00
2019-02-04T23:50:32.527Z,33.20
2019-02-04T23:52:59.089Z,32.60
2019-02-04T23:55:25.646Z,28.67
2019-02-04T23:57:52.033Z,31.57
